Terminal Aerodrome Forecast
Issued by NWS Twin Cities, MN

Home | Current Version | Previous Version | Text Only | Print | Product List | Glossary On
Versions: 1 2 3 4 5 6 7 8 9 10 11 12 13 14 15 16
000
FTUS43 KMPX 170500
TAFEAU
TAF
KEAU 170540Z 1706/1806 27011G18KT P6SM SCT025 BKN050
     FM171500 30015G23KT 6SM -SHRA OVC025
     FM172200 33013G20KT P6SM OVC030
     FM180300 33010KT P6SM OVC040=

USA.gov is the U.S. government's official web portal to all federal, state and local government web resources and services.